Time;durP1;ratioP1;P1;durP2;ratioP2;P2;SDS_P1;SDS_P2;PMS_P1;PMS_P2;Temp;Humidity;BMP_temperature;BMP_pressure;BME280_temperature;BME280_humidity;BME280_pressure;Samples;Min_cycle;Max_cycle;Signal;HPM_P1;HPM_P2
2021/05/11 00:00:57;;;;;;;1.45;1.23;;;13.80;74.50;;;;;;5082070;28;20067;-70
2021/05/11 00:03:23;;;;;;;1.50;1.40;;;13.80;74.50;;;;;;5088552;28;20027;-70
2021/05/11 00:05:49;;;;;;;1.63;1.30;;;13.80;75.00;;;;;;5090937;28;20138;-70
2021/05/11 00:08:14;;;;;;;1.50;1.40;;;13.70;75.30;;;;;;5085022;28;20024;-70
2021/05/11 00:10:40;;;;;;;1.63;1.40;;;13.80;75.70;;;;;;5091493;28;20399;-70
2021/05/11 00:13:05;;;;;;;2.05;1.42;;;13.80;75.90;;;;;;5090520;28;20024;-70
2021/05/11 00:15:31;;;;;;;3.45;1.50;;;13.80;76.00;;;;;;5091424;28;20468;-70
2021/05/11 00:17:57;;;;;;;1.50;1.40;;;13.90;76.00;;;;;;5066396;28;20025;-70
2021/05/11 00:20:22;;;;;;;3.75;1.75;;;13.90;76.10;;;;;;5089225;28;20040;-70
2021/05/11 00:22:48;;;;;;;3.88;1.90;;;13.90;76.20;;;;;;5091219;28;20020;-70
2021/05/11 00:25:14;;;;;;;2.10;1.90;;;14.00;76.30;;;;;;5090343;28;20028;-70
2021/05/11 00:27:41;;;;;;;2.00;1.90;;;14.00;76.40;;;;;;5091418;28;20024;-70
2021/05/11 00:30:08;;;;;;;3.63;2.97;;;14.00;76.40;;;;;;5090184;28;20468;-70
2021/05/11 00:32:33;;;;;;;2.53;2.33;;;14.00;76.50;;;;;;5090800;28;20086;-70
2021/05/11 00:34:59;;;;;;;3.45;2.75;;;14.00;76.50;;;;;;5091034;28;20428;-70
2021/05/11 00:37:25;;;;;;;4.03;3.20;;;14.00;76.50;;;;;;5091457;28;20024;-70
2021/05/11 00:39:50;;;;;;;3.70;3.35;;;14.00;76.50;;;;;;5091400;28;20031;-70
2021/05/11 00:42:16;;;;;;;3.88;3.47;;;14.00;76.40;;;;;;5091382;28;20032;-70
2021/05/11 00:44:41;;;;;;;4.05;3.30;;;13.90;76.30;;;;;;5070750;28;20031;-70
2021/05/11 00:47:07;;;;;;;4.30;3.90;;;13.90;76.40;;;;;;5072909;28;20028;-70
2021/05/11 00:49:34;;;;;;;4.10;3.33;;;13.70;76.60;;;;;;5083649;28;20035;-71
2021/05/11 00:52:02;;;;;;;3.83;3.42;;;13.80;77.10;;;;;;5091540;28;20024;-70
2021/05/11 00:54:28;;;;;;;4.45;3.97;;;13.80;77.30;;;;;;5091335;28;20024;-71
2021/05/11 00:56:54;;;;;;;5.30;4.05;;;13.80;77.20;;;;;;5091741;28;20084;-70
2021/05/11 00:59:28;;;;;;;4.68;4.18;;;13.80;77.00;;;;;;5091813;28;20028;-70
2021/05/11 01:01:54;;;;;;;5.93;4.07;;;13.70;76.80;;;;;;5091132;28;20032;-70
2021/05/11 01:04:21;;;;;;;5.57;4.43;;;13.60;77.00;;;;;;5088812;28;20497;-70
2021/05/11 01:06:47;;;;;;;5.25;3.75;;;13.60;77.30;;;;;;5090927;28;20085;-69
2021/05/11 01:09:13;;;;;;;4.15;3.78;;;13.50;77.40;;;;;;5091767;28;20024;-70
2021/05/11 01:11:39;;;;;;;3.88;3.47;;;13.50;77.80;;;;;;5093875;28;20028;-70
2021/05/11 01:14:06;;;;;;;3.85;3.40;;;13.50;77.90;;;;;;5072339;28;20027;-70
2021/05/11 01:16:32;;;;;;;4.18;3.63;;;13.50;77.90;;;;;;5091520;28;20043;-70
2021/05/11 01:19:04;;;;;;;5.60;3.70;;;13.50;77.90;;;;;;5091350;28;20421;-70
2021/05/11 01:27:08;;;;;;;4.22;3.80;;;13.50;78.40;;;;;;5089767;28;20027;-70
2021/05/11 01:46:03;;;;;;;7.85;6.03;;;13.60;78.60;;;;;;5094220;28;20444;-70
2021/05/11 02:10:02;;;;;;;8.75;7.03;;;13.60;78.50;;;;;;5091107;28;20514;-70
2021/05/11 02:24:09;;;;;;;8.48;6.70;;;13.70;79.00;;;;;;5089402;28;20054;-71
2021/05/11 02:26:34;;;;;;;7.82;6.25;;;13.70;78.70;;;;;;5087507;28;20032;-70
2021/05/11 02:29:00;;;;;;;9.75;6.90;;;13.60;78.80;;;;;;5090358;28;20380;-70
2021/05/11 02:31:26;;;;;;;9.07;7.05;;;13.50;78.90;;;;;;5072358;28;20036;-70
2021/05/11 02:33:51;;;;;;;9.00;6.90;;;13.50;79.00;;;;;;5090098;28;20097;-71
2021/05/11 02:36:17;;;;;;;8.35;6.68;;;13.40;79.00;;;;;;5090325;28;20848;-71
2021/05/11 02:38:43;;;;;;;9.77;7.65;;;13.30;79.10;;;;;;5089620;28;20103;-71
2021/05/11 02:41:08;;;;;;;10.48;8.45;;;13.30;79.30;;;;;;5084079;28;20020;-69
2021/05/11 02:43:37;;;;;;;11.35;8.48;;;13.20;79.30;;;;;;5089925;28;20024;-70
2021/05/11 02:46:02;;;;;;;12.40;8.75;;;13.20;79.60;;;;;;5090167;28;20501;-71
2021/05/11 02:48:28;;;;;;;13.30;9.10;;;13.20;79.50;;;;;;5083597;28;20028;-71
2021/05/11 02:50:54;;;;;;;12.32;8.63;;;13.10;79.80;;;;;;5091004;28;20337;-71
2021/05/11 02:53:19;;;;;;;11.35;8.80;;;13.10;79.80;;;;;;5090843;28;20027;-70
2021/05/11 02:55:45;;;;;;;13.10;9.18;;;13.10;79.90;;;;;;5089033;28;20444;-70
2021/05/11 02:58:14;;;;;;;13.05;9.05;;;13.10;80.10;;;;;;5077378;28;20051;-70
2021/05/11 03:00:41;;;;;;;14.70;9.25;;;13.10;80.20;;;;;;5092638;28;20068;-70
2021/05/11 03:03:07;;;;;;;11.82;9.15;;;13.00;80.10;;;;;;5105357;28;20372;-70
2021/05/11 03:05:33;;;;;;;13.13;9.95;;;13.00;80.20;;;;;;5075261;28;20024;-71
2021/05/11 03:07:58;;;;;;;13.68;8.68;;;13.00;80.50;;;;;;5094076;28;20101;-70
2021/05/11 03:10:24;;;;;;;12.23;8.98;;;13.00;80.60;;;;;;5093859;28;20521;-71
2021/05/11 03:12:49;;;;;;;14.88;9.55;;;13.00;80.80;;;;;;5110429;28;20099;-71
2021/05/11 03:15:15;;;;;;;12.30;8.90;;;13.10;80.90;;;;;;5101846;28;20380;-71
2021/05/11 03:17:41;;;;;;;14.00;9.63;;;13.10;80.70;;;;;;5075965;28;20035;-70
2021/05/11 03:22:42;;;;;;;12.52;9.23;;;13.00;80.70;;;;;;4833037;22;20078;-68
2021/05/11 03:25:08;;;;;;;12.10;9.18;;;12.90;80.90;;;;;;5067713;28;20506;-68
2021/05/11 03:27:34;;;;;;;14.50;9.27;;;12.90;81.00;;;;;;5114002;28;20028;-69
2021/05/11 03:30:00;;;;;;;13.57;9.50;;;12.90;81.10;;;;;;5097601;28;20035;-68
2021/05/11 03:32:26;;;;;;;13.38;9.90;;;13.00;81.40;;;;;;5075442;28;20024;-69
2021/05/11 03:34:51;;;;;;;14.45;9.82;;;13.00;81.40;;;;;;5083993;28;20032;-68
2021/05/11 03:37:17;;;;;;;13.00;9.20;;;13.00;81.20;;;;;;5093262;28;20498;-68
2021/05/11 03:39:43;;;;;;;13.45;9.25;;;13.00;81.20;;;;;;5093794;28;20047;-69
2021/05/11 03:42:34;;;;;;;16.27;10.38;;;13.00;81.30;;;;;;5093598;28;20068;-69
2021/05/11 03:45:02;;;;;;;16.20;10.40;;;13.00;81.50;;;;;;5091924;28;20073;-68
2021/05/11 03:47:35;;;;;;;13.70;9.60;;;13.00;81.50;;;;;;5093478;28;20054;-68
2021/05/11 03:50:00;;;;;;;;;;;13.00;81.50;;;;;;5068456;28;20031;-69
2021/05/11 03:52:26;;;;;;;13.48;9.05;;;13.10;81.10;;;;;;5089178;28;19908;-68
2021/05/11 03:54:51;;;;;;;15.13;10.07;;;13.10;81.00;;;;;;5091933;28;20066;-70
2021/05/11 03:57:17;;;;;;;14.48;9.30;;;13.10;81.20;;;;;;5073912;28;20069;-68
2021/05/11 03:59:42;;;;;;;13.18;8.70;;;13.00;81.30;;;;;;5074675;28;20035;-68
2021/05/11 04:02:08;;;;;;;17.17;10.18;;;13.00;81.60;;;;;;5093477;28;20565;-69
2021/05/11 04:04:34;;;;;;;13.90;9.55;;;13.10;81.70;;;;;;5091682;28;20028;-68
2021/05/11 04:06:59;;;;;;;13.68;9.38;;;13.10;81.70;;;;;;5092108;28;20047;-68
2021/05/11 04:17:44;;;;;;;14.13;9.95;;;13.20;81.60;;;;;;5091842;28;20417;-69
2021/05/11 04:20:11;;;;;;;16.17;10.38;;;13.20;81.50;;;;;;5092537;28;20380;-69
2021/05/11 04:22:37;;;;;;;15.98;10.82;;;13.20;81.60;;;;;;5090496;28;20024;-69
2021/05/11 04:25:03;;;;;;;15.25;10.93;;;13.20;81.80;;;;;;5100547;28;20027;-69
2021/05/11 04:27:28;;;;;;;16.38;11.00;;;13.20;81.70;;;;;;5110930;28;20502;-70
2021/05/11 04:29:59;;;;;;;15.43;11.25;;;13.20;81.80;;;;;;5082508;28;20591;-68
2021/05/11 04:32:24;;;;;;;16.58;11.25;;;13.10;81.70;;;;;;5082844;28;20016;-68
2021/05/11 04:34:50;;;;;;;15.82;11.25;;;13.20;82.00;;;;;;5107322;28;20045;-68
2021/05/11 04:37:15;;;;;;;18.38;12.38;;;13.20;82.00;;;;;;5104351;28;20383;-68
2021/05/11 04:39:41;;;;;;;18.15;11.23;;;13.20;82.00;;;;;;5092054;28;20591;-69
2021/05/11 04:42:07;;;;;;;18.70;11.65;;;13.20;82.00;;;;;;5085585;28;20104;-69
2021/05/11 04:44:33;;;;;;;18.15;12.00;;;13.20;82.10;;;;;;5092267;28;20028;-68
2021/05/11 04:47:08;;;;;;;16.20;10.95;;;13.20;82.00;;;;;;5094445;28;20039;-68
2021/05/11 04:49:34;;;;;;;17.38;11.63;;;13.20;82.20;;;;;;5086858;28;20158;-68
2021/05/11 04:51:59;;;;;;;17.13;11.68;;;13.30;82.20;;;;;;5088439;28;20507;-69
2021/05/11 04:54:26;;;;;;;16.20;10.70;;;13.40;82.30;;;;;;5073007;28;20485;-68
2021/05/11 04:56:51;;;;;;;17.38;11.23;;;13.40;82.20;;;;;;5092222;28;20048;-68
2021/05/11 04:59:17;;;;;;;15.07;10.77;;;13.50;82.10;;;;;;5088264;28;20026;-68
2021/05/11 05:01:45;;;;;;;17.25;11.25;;;13.50;82.10;;;;;;5086566;28;20454;-68
2021/05/11 05:04:12;;;;;;;15.68;10.95;;;13.60;82.30;;;;;;5084810;28;20020;-67
2021/05/11 05:06:38;;;;;;;18.27;12.30;;;13.60;82.30;;;;;;5091780;28;20126;-67
2021/05/11 05:09:04;;;;;;;15.25;11.52;;;13.60;82.00;;;;;;5091489;28;20067;-67
2021/05/11 05:11:30;;;;;;;15.35;10.80;;;13.60;81.90;;;;;;5089955;28;20043;-67
2021/05/11 05:13:55;;;;;;;17.92;11.10;;;13.60;81.80;;;;;;5090714;28;20062;-67
2021/05/11 05:16:21;;;;;;;16.75;11.75;;;13.60;82.00;;;;;;5104189;28;20451;-67
2021/05/11 05:18:46;;;;;;;16.17;10.70;;;13.70;82.10;;;;;;5091856;28;20027;-67
2021/05/11 05:21:13;;;;;;;17.10;11.77;;;13.80;82.20;;;;;;5090803;28;20082;-67
2021/05/11 05:23:45;;;;;;;17.17;11.32;;;13.80;82.10;;;;;;5086982;28;20030;-67
2021/05/11 05:26:15;;;;;;;17.50;11.27;;;13.80;82.20;;;;;;5097875;28;20464;-67
2021/05/11 05:28:42;;;;;;;19.80;12.15;;;13.90;82.20;;;;;;5072690;28;20036;-69
2021/05/11 05:31:08;;;;;;;16.00;10.80;;;13.90;81.90;;;;;;5072271;28;20028;-66
2021/05/11 05:33:36;;;;;;;17.48;11.82;;;13.80;81.90;;;;;;5085776;28;20028;-69
2021/05/11 05:36:02;;;;;;;17.17;11.52;;;13.80;82.10;;;;;;5089765;28;20097;-69
2021/05/11 05:38:29;;;;;;;16.38;11.23;;;13.90;82.20;;;;;;5090923;28;20072;-67
2021/05/11 05:41:01;;;;;;;17.25;12.07;;;13.90;81.90;;;;;;5081578;28;20024;-66
2021/05/11 05:43:27;;;;;;;17.13;12.18;;;13.80;81.40;;;;;;5073028;28;20036;-66
2021/05/11 05:45:54;;;;;;;18.05;12.48;;;13.70;81.40;;;;;;5089865;28;20039;-69
2021/05/11 05:48:20;;;;;;;15.80;11.68;;;13.70;81.70;;;;;;5091172;28;20034;-69
2021/05/11 05:50:49;;;;;;;15.55;11.85;;;13.60;82.00;;;;;;5089988;28;20027;-70
2021/05/11 05:53:22;;;;;;;16.55;11.57;;;13.70;82.30;;;;;;5086853;28;20074;-67
2021/05/11 05:55:48;;;;;;;17.77;12.48;;;13.70;82.10;;;;;;5089328;28;20092;-69
2021/05/11 05:58:14;;;;;;;16.48;11.75;;;13.70;82.10;;;;;;5090355;28;20032;-67
2021/05/11 06:00:40;;;;;;;17.45;11.13;;;13.70;82.10;;;;;;5071853;28;20030;-69
2021/05/11 06:03:07;;;;;;;16.33;11.25;;;13.70;82.00;;;;;;5084286;28;20122;-67
2021/05/11 06:05:33;;;;;;;15.75;11.18;;;13.70;82.00;;;;;;5102562;28;20077;-67
2021/05/11 06:07:59;;;;;;;17.00;11.80;;;13.70;82.10;;;;;;5079819;28;20407;-69
2021/05/11 06:10:30;;;;;;;16.55;11.38;;;13.80;81.90;;;;;;5090331;28;20020;-68
2021/05/11 06:13:10;;;;;;;16.98;11.55;;;13.70;81.80;;;;;;5085364;28;20028;-68
2021/05/11 06:18:36;;;;;;;15.18;10.88;;;13.80;82.00;;;;;;5066960;28;20036;-67
2021/05/11 06:21:02;;;;;;;15.80;10.57;;;13.80;82.00;;;;;;5101636;28;20081;-67
2021/05/11 06:23:28;;;;;;;15.80;11.57;;;13.80;81.90;;;;;;5090362;28;20031;-68
2021/05/11 06:25:53;;;;;;;16.33;11.82;;;13.80;81.80;;;;;;5080740;28;20438;-67
2021/05/11 06:28:19;;;;;;;17.42;11.50;;;13.80;81.60;;;;;;5087489;28;20107;-67
2021/05/11 06:30:44;;;;;;;16.00;10.90;;;13.90;81.80;;;;;;5090406;28;20123;-67
2021/05/11 06:33:10;;;;;;;16.05;11.65;;;13.90;81.70;;;;;;5068812;28;20028;-67
2021/05/11 06:35:36;;;;;;;15.68;10.90;;;13.90;81.60;;;;;;5070616;28;20032;-67
2021/05/11 06:38:02;;;;;;;15.80;10.93;;;13.80;81.50;;;;;;5089241;28;20032;-67
2021/05/11 06:40:29;;;;;;;15.27;10.82;;;13.90;81.60;;;;;;5090203;28;20028;-67
2021/05/11 06:42:57;;;;;;;15.35;10.18;;;13.90;81.80;;;;;;5082561;28;20039;-67
2021/05/11 06:48:30;;;;;;;13.50;9.57;;;14.00;81.50;;;;;;5069775;28;20085;-67
2021/05/11 06:53:37;;;;;;;12.32;9.15;;;14.00;81.40;;;;;;5089545;28;20398;-68
2021/05/11 06:56:04;;;;;;;13.45;9.38;;;14.00;81.70;;;;;;5062632;28;20135;-67
2021/05/11 06:58:30;;;;;;;13.85;10.50;;;14.10;81.60;;;;;;5089638;28;20024;-67
2021/05/11 07:00:56;;;;;;;12.95;9.20;;;14.10;81.50;;;;;;5082746;28;23501;-69
2021/05/11 07:03:21;;;;;;;11.23;9.13;;;14.10;81.70;;;;;;5088435;28;20533;-67
2021/05/11 07:05:49;;;;;;;14.05;9.98;;;14.00;81.10;;;;;;5086932;28;20051;-68
2021/05/11 07:08:18;;;;;;;13.80;9.65;;;14.00;81.10;;;;;;5089109;28;20028;-68
2021/05/11 07:10:51;;;;;;;14.02;10.23;;;14.00;81.10;;;;;;5086229;28;20480;-67
2021/05/11 07:13:17;;;;;;;14.05;9.77;;;14.00;81.20;;;;;;5068878;28;20048;-67
2021/05/11 07:15:43;;;;;;;16.02;10.55;;;14.00;81.20;;;;;;5085893;28;20027;-66
2021/05/11 07:18:18;;;;;;;13.80;8.70;;;14.10;81.30;;;;;;5080972;28;20047;-66
2021/05/11 07:20:46;;;;;;;11.10;8.07;;;14.10;81.60;;;;;;5084099;28;20034;-67
2021/05/11 07:23:21;;;;;;;14.38;10.75;;;14.20;81.20;;;;;;5086638;28;20478;-66
2021/05/11 07:28:33;;;;;;;9.65;6.75;;;14.30;81.20;;;;;;5085308;28;20332;-67
2021/05/11 07:31:02;;;;;;;9.43;7.20;;;14.40;81.20;;;;;;5082178;28;20020;-67
2021/05/11 07:33:33;;;;;;;9.32;7.57;;;14.50;81.10;;;;;;5085265;28;20051;-67
2021/05/11 07:35:58;;;;;;;10.18;7.80;;;14.60;81.10;;;;;;5087915;28;20103;-67
2021/05/11 07:38:25;;;;;;;10.10;8.35;;;14.70;80.90;;;;;;5088590;28;20155;-67
2021/05/11 07:40:53;;;;;;;10.88;8.55;;;14.80;81.00;;;;;;5092216;28;20031;-66
2021/05/11 07:43:21;;;;;;;10.32;7.78;;;14.80;80.60;;;;;;5092224;28;20047;-68
2021/05/11 08:17:22;;;;;;;10.68;8.10;;;15.60;78.70;;;;;;5091767;28;20023;-67
2021/05/11 08:20:08;;;;;;;10.88;7.53;;;15.70;78.80;;;;;;5088336;28;20027;-68
2021/05/11 08:29:59;;;;;;;9.65;7.32;;;15.80;78.30;;;;;;5090975;28;20032;-68
2021/05/11 08:32:24;;;;;;;9.27;7.45;;;15.80;78.10;;;;;;5104114;28;20035;-68
2021/05/11 08:34:50;;;;;;;8.80;7.38;;;15.80;77.60;;;;;;5072936;28;20077;-68
2021/05/11 08:37:16;;;;;;;12.02;7.97;;;15.80;77.50;;;;;;5084347;28;20381;-67
2021/05/11 08:39:43;;;;;;;10.60;7.72;;;15.90;77.70;;;;;;5085954;28;20399;-67
2021/05/11 08:42:08;;;;;;;9.40;7.32;;;16.00;77.60;;;;;;5091251;28;20479;-67
2021/05/11 08:44:35;;;;;;;11.32;8.15;;;16.00;77.50;;;;;;5089000;28;20089;-68
2021/05/11 08:47:01;;;;;;;9.95;8.00;;;16.00;77.60;;;;;;5072938;28;20024;-68
2021/05/11 08:49:26;;;;;;;9.35;6.60;;;16.10;77.40;;;;;;5091203;28;20035;-69
2021/05/11 08:52:00;;;;;;;10.23;6.82;;;16.20;77.40;;;;;;5090025;28;20024;-67
2021/05/11 09:07:52;;;;;;;8.50;6.65;;;17.30;74.90;;;;;;5090611;28;20205;-68
2021/05/11 09:16:30;;;;;;;10.10;6.97;;;17.20;74.70;;;;;;5089729;28;20067;-70
2021/05/11 09:44:50;;;;;;;9.85;6.63;;;16.60;75.00;;;;;;5085870;28;20024;-72
2021/05/11 09:55:26;;;;;;;6.85;5.55;;;17.20;74.40;;;;;;5048404;28;20545;-70
2021/05/11 09:58:03;;;;;;;6.95;5.97;;;17.30;74.30;;;;;;5090991;28;20068;-73
2021/05/11 10:42:07;;;;;;;7.00;5.13;;;16.90;74.10;;;;;;5084178;28;20040;-71
2021/05/11 10:49:28;;;;;;;8.27;5.80;;;17.00;73.90;;;;;;5088842;28;20031;-71
2021/05/11 10:54:58;;;;;;;6.45;5.25;;;16.90;73.50;;;;;;5088791;28;20035;-72
2021/05/11 10:57:42;;;;;;;6.93;5.70;;;16.80;73.60;;;;;;5089356;28;20028;-70
2021/05/11 11:03:07;;;;;;;8.00;5.10;;;16.70;73.60;;;;;;5088007;28;20024;-71
2021/05/11 11:06:02;;;;;;;5.75;5.20;;;16.60;73.80;;;;;;5070336;28;21369;-71
2021/05/11 11:08:37;;;;;;;5.80;4.85;;;16.60;74.00;;;;;;5078874;28;20482;-72
2021/05/11 11:11:10;;;;;;;5.68;4.72;;;16.60;74.10;;;;;;5071608;28;20083;-71
2021/05/11 11:13:38;;;;;;;5.05;4.35;;;16.60;74.20;;;;;;5089589;28;20123;-70
2021/05/11 11:16:04;;;;;;;7.13;4.75;;;16.60;74.10;;;;;;5092093;28;20024;-71
2021/05/11 11:18:29;;;;;;;7.07;5.22;;;16.60;73.90;;;;;;5087642;28;20036;-72
2021/05/11 11:23:52;;;;;;;6.40;4.82;;;16.60;74.10;;;;;;5093560;28;20101;-71
2021/05/11 11:26:29;;;;;;;6.85;4.43;;;16.60;74.00;;;;;;5093043;28;20040;-72
2021/05/11 11:29:02;;;;;;;6.05;5.25;;;16.60;74.30;;;;;;5093133;28;20059;-72
2021/05/11 11:31:32;;;;;;;6.28;5.00;;;16.60;74.10;;;;;;5091358;28;20024;-71
2021/05/11 11:34:16;;;;;;;5.30;4.55;;;16.50;74.10;;;;;;5076586;28;20418;-72
2021/05/11 11:36:49;;;;;;;6.93;4.90;;;16.50;74.30;;;;;;5073460;28;20047;-71
2021/05/11 11:39:24;;;;;;;8.40;4.10;;;16.50;74.50;;;;;;5089233;28;20032;-71
2021/05/11 11:41:52;;;;;;;5.35;4.72;;;16.60;74.70;;;;;;5088861;28;20111;-71
2021/05/11 11:44:23;;;;;;;6.93;4.55;;;16.60;74.60;;;;;;5091436;28;20089;-71
2021/05/11 11:47:12;;;;;;;5.15;4.38;;;16.60;74.70;;;;;;5092876;28;20024;-71
2021/05/11 11:49:43;;;;;;;4.90;4.40;;;16.70;74.70;;;;;;5064227;28;20388;-71
2021/05/11 11:52:36;;;;;;;5.63;5.03;;;16.70;74.70;;;;;;5092525;28;20028;-71
2021/05/11 12:00:19;;;;;;;4.68;4.10;;;16.60;74.30;;;;;;5089679;28;20035;-72
2021/05/11 12:02:50;;;;;;;4.18;3.78;;;16.60;74.50;;;;;;5090891;28;20099;-72
2021/05/11 12:05:16;;;;;;;15.90;11.90;;;16.60;74.70;;;;;;5088918;28;20103;-73
2021/05/11 12:10:27;;;;;;;5.03;4.07;;;16.70;74.40;;;;;;5091329;28;20039;-72
2021/05/11 12:12:54;;;;;;;6.32;4.50;;;16.80;74.40;;;;;;5092510;28;20043;-73
2021/05/11 12:15:22;;;;;;;4.85;4.18;;;16.80;74.30;;;;;;5086606;28;20020;-73
2021/05/11 12:18:20;;;;;;;6.55;4.38;;;16.80;74.30;;;;;;5077170;28;20029;-73
2021/05/11 12:20:57;;;;;;;6.68;4.50;;;16.80;74.20;;;;;;5069070;28;20020;-73
2021/05/11 12:23:23;;;;;;;4.90;4.03;;;16.70;74.00;;;;;;5092532;28;20032;-72
2021/05/11 12:25:56;;;;;;;4.45;4.05;;;16.60;73.90;;;;;;5073111;28;20032;-73
2021/05/11 12:28:36;;;;;;;4.60;4.20;;;16.60;74.30;;;;;;5092168;28;20021;-73
2021/05/11 12:31:06;;;;;;;5.13;4.63;;;16.60;74.40;;;;;;5090889;28;20039;-72
2021/05/11 12:33:43;;;;;;;6.95;4.10;;;16.60;74.50;;;;;;5088177;28;20032;-72
2021/05/11 12:36:23;;;;;;;4.25;3.88;;;16.60;74.70;;;;;;5086755;28;20063;-72
2021/05/11 12:38:50;;;;;;;4.70;4.07;;;16.60;74.80;;;;;;5067422;28;20073;-72
2021/05/11 12:41:31;;;;;;;4.75;3.53;;;16.60;74.70;;;;;;5090624;28;20028;-72
2021/05/11 12:43:57;;;;;;;4.95;3.60;;;16.60;74.80;;;;;;5089126;28;20016;-72
2021/05/11 12:46:29;;;;;;;3.85;3.45;;;16.50;74.70;;;;;;5086190;28;20046;-71
2021/05/11 12:49:15;;;;;;;4.28;3.53;;;16.50;75.00;;;;;;5088317;28;20022;-71
2021/05/11 12:51:43;;;;;;;4.78;3.13;;;16.50;75.00;;;;;;5091809;28;20057;-71
2021/05/11 12:54:34;;;;;;;3.55;3.25;;;16.50;75.10;;;;;;5090405;28;20032;-71
2021/05/11 12:59:30;;;;;;;6.40;3.55;;;16.60;75.20;;;;;;5087035;28;20024;-71
2021/05/11 13:02:25;;;;;;;3.60;3.30;;;16.60;75.50;;;;;;5087741;28;20020;-71
2021/05/11 13:09:19;;;;;;;3.40;3.10;;;16.60;75.40;;;;;;5077167;28;20024;-71
2021/05/11 13:27:00;;;;;;;3.95;3.55;;;16.30;76.30;;;;;;5046304;28;20047;-70
2021/05/11 13:31:59;;;;;;;3.53;3.22;;;16.30;76.60;;;;;;5091566;28;20055;-71
2021/05/11 13:34:24;;;;;;;5.30;3.65;;;16.40;76.70;;;;;;5087542;28;20095;-70
2021/05/11 13:36:50;;;;;;;4.15;3.75;;;16.30;76.90;;;;;;5088391;28;20115;-70
2021/05/11 13:39:16;;;;;;;7.00;4.80;;;16.30;77.00;;;;;;5091590;28;20694;-70
2021/05/11 13:41:43;;;;;;;5.95;4.60;;;16.30;76.90;;;;;;5091221;28;20392;-70
2021/05/11 13:44:09;;;;;;;4.97;4.55;;;16.30;77.20;;;;;;5089718;28;20490;-70
2021/05/11 13:46:34;;;;;;;6.53;4.38;;;16.30;77.40;;;;;;5072045;28;20071;-70
2021/05/11 13:49:01;;;;;;;4.90;4.50;;;16.30;77.40;;;;;;5077786;28;20052;-70
2021/05/11 13:51:27;;;;;;;5.40;4.90;;;16.30;77.60;;;;;;5093298;28;20015;-70
2021/05/11 13:53:57;;;;;;;6.07;5.00;;;16.20;77.80;;;;;;5070855;28;20033;-70
2021/05/11 14:04:02;;;;;;;9.15;6.32;;;16.20;78.40;;;;;;5090145;28;20031;-70
2021/05/11 14:06:28;;;;;;;6.35;5.68;;;16.20;78.50;;;;;;5091198;28;20016;-71
2021/05/11 14:08:53;;;;;;;7.38;5.75;;;16.20;78.70;;;;;;5091222;28;20536;-71
2021/05/11 14:11:20;;;;;;;6.45;5.85;;;16.20;78.70;;;;;;5091123;28;20024;-71
2021/05/11 14:13:45;;;;;;;10.02;6.03;;;16.10;78.60;;;;;;5090573;28;20768;-71
2021/05/11 14:16:11;;;;;;;6.57;5.80;;;16.10;78.80;;;;;;5088917;28;20031;-71
2021/05/11 14:18:37;;;;;;;7.00;5.65;;;16.00;78.90;;;;;;5089937;28;20048;-70
2021/05/11 14:21:05;;;;;;;7.07;6.13;;;15.90;78.90;;;;;;5089572;28;20488;-72
2021/05/11 14:23:31;;;;;;;7.82;5.85;;;15.90;79.30;;;;;;5089767;28;20475;-72
2021/05/11 14:25:57;;;;;;;10.25;5.72;;;15.90;79.40;;;;;;5083555;28;20112;-71
2021/05/11 14:28:23;;;;;;;9.60;6.63;;;15.90;79.60;;;;;;5080659;28;20024;-71
2021/05/11 14:30:49;;;;;;;7.30;6.60;;;15.80;79.90;;;;;;5086007;28;20389;-70
2021/05/11 14:33:14;;;;;;;7.60;6.25;;;15.90;80.10;;;;;;5070403;28;20492;-72
2021/05/11 14:35:40;;;;;;;81.63;58.58;;;15.90;80.30;;;;;;5090109;28;20046;-72
2021/05/11 14:38:06;;;;;;;12.82;8.80;;;15.90;80.50;;;;;;5092212;28;20102;-71
2021/05/11 14:40:32;;;;;;;8.30;7.53;;;15.90;80.60;;;;;;5092487;28;20438;-71
2021/05/11 14:42:57;;;;;;;11.68;7.93;;;15.90;80.40;;;;;;5091217;28;20028;-70
2021/05/11 14:45:24;;;;;;;9.30;8.18;;;15.80;80.50;;;;;;5089480;28;20549;-71
2021/05/11 14:47:50;;;;;;;10.73;8.40;;;15.80;80.60;;;;;;5069550;28;20031;-71
2021/05/11 14:50:18;;;;;;;10.65;8.73;;;15.80;80.80;;;;;;5095883;28;20024;-70
2021/05/11 14:52:44;;;;;;;11.38;9.05;;;15.70;81.00;;;;;;5076554;28;20085;-70
2021/05/11 14:55:13;;;;;;;10.60;9.57;;;15.70;80.70;;;;;;5093100;28;20035;-71
2021/05/11 14:57:39;;;;;;;10.65;9.52;;;15.60;80.70;;;;;;5089156;28;20033;-72
2021/05/11 15:00:07;;;;;;;12.95;10.63;;;15.50;81.20;;;;;;5090231;28;20027;-71
2021/05/11 15:02:34;;;;;;;13.35;11.15;;;15.60;81.50;;;;;;5090784;28;20105;-71
2021/05/11 15:05:00;;;;;;;11.88;10.68;;;15.50;81.50;;;;;;5093834;28;20074;-71
2021/05/11 15:07:26;;;;;;;12.43;10.77;;;15.50;81.70;;;;;;5087932;28;20028;-71
2021/05/11 15:09:52;;;;;;;13.68;10.80;;;15.50;82.10;;;;;;5094490;28;20032;-71
2021/05/11 15:12:17;;;;;;;13.80;10.02;;;15.50;82.20;;;;;;5088432;28;20103;-71
2021/05/11 15:14:43;;;;;;;14.60;10.63;;;15.50;81.90;;;;;;5093094;28;20028;-71
2021/05/11 15:19:59;;;;;;;12.82;10.38;;;15.30;82.00;;;;;;5045007;28;20040;-71
2021/05/11 15:24:54;;;;;;;12.43;11.10;;;15.20;82.60;;;;;;5039864;28;20053;-69
2021/05/11 15:27:21;;;;;;;13.40;11.00;;;15.20;82.80;;;;;;5042311;28;20516;-69
2021/05/11 15:29:46;;;;;;;12.77;11.40;;;15.20;82.80;;;;;;5047352;28;20060;-69
2021/05/11 15:32:40;;;;;;;13.88;10.73;;;15.20;82.70;;;;;;5048962;28;20029;-70
2021/05/11 15:35:16;;;;;;;11.50;10.30;;;15.20;82.80;;;;;;5048571;28;20048;-69
2021/05/11 15:37:43;;;;;;;13.48;10.05;;;15.10;82.80;;;;;;5045610;28;20142;-69
2021/05/11 15:40:14;;;;;;;13.65;10.52;;;15.00;82.60;;;;;;5048354;28;20025;-68
2021/05/11 15:42:40;;;;;;;14.63;11.18;;;15.00;83.10;;;;;;5045696;28;20032;-70
2021/05/11 15:45:07;;;;;;;13.05;11.13;;;14.90;83.20;;;;;;5047837;28;20029;-69
2021/05/11 15:47:32;;;;;;;12.75;11.38;;;14.90;83.40;;;;;;5051283;28;20060;-69
2021/05/11 15:49:58;;;;;;;12.48;10.40;;;14.90;83.50;;;;;;5043928;28;20102;-69
2021/05/11 15:52:24;;;;;;;10.93;9.63;;;14.90;83.70;;;;;;5044296;28;20025;-69
2021/05/11 15:54:50;;;;;;;10.90;8.52;;;14.90;83.80;;;;;;5039744;28;20032;-70
2021/05/11 15:57:16;;;;;;;8.23;7.18;;;14.80;83.80;;;;;;5055065;28;20036;-69
2021/05/11 15:59:42;;;;;;;7.32;6.57;;;14.80;83.70;;;;;;5046656;28;20033;-69
2021/05/11 16:02:08;;;;;;;7.25;5.70;;;14.70;83.90;;;;;;5048843;28;20485;-69
2021/05/11 16:04:34;;;;;;;6.75;5.72;;;14.70;84.10;;;;;;5052105;28;20028;-69
2021/05/11 16:07:00;;;;;;;7.32;5.72;;;14.70;84.20;;;;;;5044728;28;20028;-69
2021/05/11 16:09:25;;;;;;;6.82;6.15;;;14.70;84.40;;;;;;5049282;28;20028;-70
2021/05/11 16:11:51;;;;;;;6.82;6.22;;;14.70;84.40;;;;;;5045507;28;20029;-70
2021/05/11 16:14:17;;;;;;;5.43;4.70;;;14.70;84.50;;;;;;5045353;28;20028;-70
2021/05/11 16:16:42;;;;;;;4.63;4.22;;;14.70;84.50;;;;;;5046927;28;20025;-70
2021/05/11 16:19:08;;;;;;;5.60;3.75;;;14.70;84.50;;;;;;5047025;28;20049;-69
2021/05/11 16:21:34;;;;;;;77.30;53.33;;;14.70;84.60;;;;;;5046086;28;20021;-68
2021/05/11 16:24:00;;;;;;;4.50;4.10;;;14.70;84.40;;;;;;5044829;28;20047;-68
2021/05/11 16:26:26;;;;;;;3.92;3.28;;;14.60;84.30;;;;;;5037992;28;20470;-68
2021/05/11 16:28:53;;;;;;;3.13;2.83;;;14.60;84.50;;;;;;5048175;28;20037;-68
2021/05/11 16:31:19;;;;;;;3.53;2.88;;;14.50;84.40;;;;;;5049225;28;20021;-70
2021/05/11 16:33:45;;;;;;;3.45;3.15;;;14.50;84.40;;;;;;5052058;28;20109;-69
2021/05/11 16:36:11;;;;;;;3.20;2.90;;;14.40;84.60;;;;;;5050282;28;20021;-70
2021/05/11 16:38:37;;;;;;;3.60;2.95;;;14.40;84.60;;;;;;5048689;28;20163;-69
2021/05/11 16:41:03;;;;;;;4.13;3.42;;;14.40;84.60;;;;;;5048086;28;20469;-69
2021/05/11 16:43:28;;;;;;;3.45;3.13;;;14.40;84.60;;;;;;5051785;28;20021;-69
2021/05/11 16:45:56;;;;;;;3.10;2.83;;;14.30;84.60;;;;;;5050309;28;20098;-69
2021/05/11 16:48:22;;;;;;;4.53;3.30;;;14.30;84.70;;;;;;5048638;28;20036;-67
2021/05/11 16:50:47;;;;;;;3.83;3.53;;;14.30;84.80;;;;;;5051793;28;20029;-68
2021/05/11 16:53:15;;;;;;;3.70;3.35;;;14.30;84.90;;;;;;5042293;28;20074;-68
2021/05/11 16:55:42;;;;;;;4.60;4.20;;;14.30;84.90;;;;;;5046834;28;20362;-68
2021/05/11 16:58:08;;;;;;;5.80;4.85;;;14.30;85.10;;;;;;5051171;28;20029;-68
2021/05/11 17:00:34;;;;;;;4.57;4.13;;;14.30;84.90;;;;;;5048094;28;20047;-69
2021/05/11 17:03:04;;;;;;;3.85;3.50;;;14.30;84.80;;;;;;5050350;28;20033;-68
2021/05/11 17:05:30;;;;;;;6.25;5.65;;;14.20;84.80;;;;;;5050100;28;20484;-69
2021/05/11 17:07:56;;;;;;;4.32;3.97;;;14.10;84.70;;;;;;5048973;28;20097;-69
2021/05/11 17:10:23;;;;;;;4.03;3.72;;;14.10;84.80;;;;;;5050563;28;20024;-68
2021/05/11 17:12:50;;;;;;;2.85;2.63;;;14.00;84.80;;;;;;5049650;28;20032;-69